Time;durP1;ratioP1;P1;durP2;ratioP2;P2;SDS_P1;SDS_P2;PMS_P1;PMS_P2;Temp;Humidity;BMP_temperature;BMP_pressure;BME280_temperature;BME280_humidity;BME280_pressure;Samples;Min_cycle;Max_cycle;Signal;HPM_P1;HPM_P2
2022/06/20 00:01:20;;;;;;;5.20;1.62;;;14.10;99.90;;;;;;7341065;32;20142;-59
2022/06/20 00:05:26;;;;;;;3.83;1.80;;;14.00;99.90;;;;;;7337925;32;20235;-61
2022/06/20 00:09:27;;;;;;;4.60;2.08;;;14.00;99.90;;;;;;7340066;32;20129;-60
2022/06/20 00:13:32;;;;;;;3.70;1.92;;;14.00;99.90;;;;;;7342744;32;20110;-60
2022/06/20 00:17:34;;;;;;;3.55;1.83;;;14.00;99.90;;;;;;7339439;32;20343;-60
2022/06/20 00:21:38;;;;;;;8.55;2.45;;;14.00;99.90;;;;;;7334408;32;20452;-62
2022/06/20 00:25:41;;;;;;;4.55;2.10;;;14.00;99.90;;;;;;7336064;32;20220;-60
2022/06/20 00:29:43;;;;;;;4.05;2.15;;;14.10;99.90;;;;;;7345189;32;20115;-60
2022/06/20 00:33:45;;;;;;;2.95;2.08;;;14.10;99.90;;;;;;7343074;32;20251;-61
2022/06/20 00:37:48;;;;;;;6.95;2.70;;;14.10;99.90;;;;;;7338592;32;20574;-60
2022/06/20 00:41:50;;;;;;;5.82;2.17;;;14.10;99.90;;;;;;7347386;32;20643;-61
2022/06/20 00:45:55;;;;;;;5.53;2.72;;;14.10;99.90;;;;;;7345070;32;20147;-60
2022/06/20 00:50:09;;;;;;;6.50;2.87;;;14.10;99.90;;;;;;7339849;32;20154;-61
2022/06/20 00:54:16;;;;;;;3.87;2.12;;;14.10;99.90;;;;;;7344706;32;20134;-61
2022/06/20 00:58:21;;;;;;;;;;;14.10;99.90;;;;;;7346295;32;20471;-61
2022/06/20 01:02:31;;;;;;;9.05;2.30;;;14.10;99.90;;;;;;7348147;32;20056;-60
2022/06/20 01:06:40;;;;;;;5.72;2.00;;;14.20;99.90;;;;;;7343760;32;20936;-60
2022/06/20 01:10:47;;;;;;;5.12;2.20;;;14.10;99.90;;;;;;7344072;32;20590;-60
2022/06/20 01:14:48;;;;;;;3.90;1.90;;;14.20;99.90;;;;;;7337543;32;20246;-62
2022/06/20 01:18:51;;;;;;;7.00;1.87;;;14.20;99.90;;;;;;7345117;32;20531;-60
2022/06/20 01:23:05;;;;;;;5.97;2.10;;;14.20;99.90;;;;;;7344732;32;20161;-59
2022/06/20 01:27:27;;;;;;;4.97;2.05;;;14.30;99.90;;;;;;7349467;32;20257;-60
2022/06/20 01:31:35;;;;;;;7.28;2.45;;;14.30;99.90;;;;;;7347673;32;20125;-61
2022/06/20 01:40:05;;;;;;;5.93;2.20;;;14.20;99.90;;;;;;7347544;32;20112;-61
2022/06/20 01:44:07;;;;;;;6.75;2.22;;;14.10;99.90;;;;;;7343516;32;20493;-61
2022/06/20 01:48:15;;;;;;;6.87;2.92;;;14.00;99.90;;;;;;7344148;32;20130;-62
2022/06/20 01:52:42;;;;;;;12.57;3.53;;;13.80;99.90;;;;;;7336943;32;20214;-60
2022/06/20 01:56:46;;;;;;;8.80;3.67;;;13.70;99.90;;;;;;7338460;32;20133;-60
2022/06/20 02:00:48;;;;;;;10.27;4.05;;;13.60;99.90;;;;;;7339195;32;20665;-60
2022/06/20 02:04:51;;;;;;;9.20;4.05;;;13.50;99.90;;;;;;7341510;32;20190;-60
2022/06/20 02:08:58;;;;;;;9.15;4.30;;;13.40;99.90;;;;;;7347035;32;20252;-60
2022/06/20 02:13:01;;;;;;;7.25;4.22;;;13.40;99.90;;;;;;7333482;32;20283;-61
2022/06/20 02:17:11;;;;;;;5.72;4.25;;;13.30;99.90;;;;;;7339436;32;20514;-59
2022/06/20 02:21:17;;;;;;;11.05;4.43;;;13.30;99.90;;;;;;7340703;32;20204;-60
2022/06/20 02:25:24;;;;;;;10.43;5.03;;;13.10;99.90;;;;;;7338719;32;20210;-60
2022/06/20 02:29:26;;;;;;;10.15;5.05;;;13.00;99.90;;;;;;7333377;32;20107;-62
2022/06/20 02:33:30;;;;;;;11.32;5.10;;;13.00;99.90;;;;;;7336662;32;20761;-61
2022/06/20 02:37:34;;;;;;;7.75;4.37;;;13.00;99.90;;;;;;7340780;32;20165;-60
2022/06/20 02:41:39;;;;;;;8.55;5.03;;;13.00;99.90;;;;;;7339168;32;20134;-62
2022/06/20 02:45:41;;;;;;;9.73;5.78;;;12.90;99.90;;;;;;7341723;32;20221;-61
2022/06/20 02:49:45;;;;;;;9.30;5.05;;;12.90;99.90;;;;;;7343098;32;20536;-59
2022/06/20 02:53:55;;;;;;;11.38;5.40;;;12.90;99.90;;;;;;7342312;32;20512;-62
2022/06/20 02:58:03;;;;;;;13.45;5.25;;;12.90;99.90;;;;;;7342360;32;20801;-61
2022/06/20 03:02:11;;;;;;;9.18;5.65;;;12.90;99.90;;;;;;7341816;32;20129;-60
2022/06/20 03:06:26;;;;;;;9.35;5.95;;;13.00;99.90;;;;;;7340122;32;20162;-59
2022/06/20 03:10:32;;;;;;;13.20;7.35;;;12.90;99.90;;;;;;7341738;32;20134;-61
2022/06/20 03:14:38;;;;;;;13.90;7.87;;;12.90;99.90;;;;;;7336247;32;20514;-60
2022/06/20 03:18:43;;;;;;;13.75;7.40;;;12.90;99.90;;;;;;7340836;32;20194;-60
2022/06/20 03:22:54;;;;;;;15.32;7.57;;;12.90;99.90;;;;;;7340339;32;20111;-60
2022/06/20 03:26:57;;;;;;;15.25;7.05;;;12.90;99.90;;;;;;7340829;32;20222;-61
2022/06/20 03:31:00;;;;;;;12.57;6.97;;;12.80;99.90;;;;;;7340523;32;20103;-60
2022/06/20 03:35:01;;;;;;;12.57;7.47;;;12.80;99.90;;;;;;7341555;32;20547;-59
2022/06/20 03:39:05;;;;;;;11.68;6.60;;;12.90;99.90;;;;;;7345224;32;20616;-60
2022/06/20 03:43:11;;;;;;;15.07;7.22;;;12.80;99.90;;;;;;7344479;32;20111;-60
2022/06/20 03:47:45;;;;;;;11.90;5.82;;;12.80;99.90;;;;;;7342204;32;20126;-60
2022/06/20 03:51:57;;;;;;;8.32;4.80;;;12.80;99.90;;;;;;7321963;32;20256;-60
2022/06/20 03:56:11;;;;;;;11.48;5.10;;;12.90;99.90;;;;;;7337755;32;20682;-59
2022/06/20 04:00:16;;;;;;;8.70;5.18;;;12.70;99.90;;;;;;7340902;32;21320;-61
2022/06/20 04:04:29;;;;;;;9.55;5.28;;;12.70;99.90;;;;;;7344215;32;20122;-62
2022/06/20 04:13:06;;;;;;;6.28;3.92;;;12.80;99.90;;;;;;7338803;32;20560;-61
2022/06/20 04:21:47;;;;;;;9.88;3.70;;;12.80;99.90;;;;;;7340413;32;20198;-60
2022/06/20 04:26:12;;;;;;;10.98;3.60;;;12.80;99.90;;;;;;7342608;32;20111;-59
2022/06/20 04:30:33;;;;;;;10.50;3.87;;;12.70;99.90;;;;;;7349603;32;20459;-60
2022/06/20 04:34:47;;;;;;;9.05;3.60;;;12.70;99.90;;;;;;7345870;32;20467;-59
2022/06/20 04:39:20;;;;;;;7.95;3.80;;;12.70;99.90;;;;;;7342990;32;20130;-61
2022/06/20 04:43:42;;;;;;;10.25;3.90;;;12.80;99.90;;;;;;7322001;32;20238;-60
2022/06/20 04:47:54;;;;;;;9.13;3.60;;;12.80;99.90;;;;;;7346691;32;20190;-67
2022/06/20 04:51:55;;;;;;;8.50;3.97;;;12.80;99.90;;;;;;7347558;32;20168;-68
2022/06/20 04:55:59;;;;;;;15.38;4.35;;;12.80;99.90;;;;;;7342720;32;20205;-67
2022/06/20 05:00:06;;;;;;;11.15;4.47;;;12.90;99.90;;;;;;7340307;32;20461;-67
2022/06/20 05:04:10;;;;;;;11.27;4.97;;;12.80;99.90;;;;;;7342292;32;20138;-67
2022/06/20 05:08:16;;;;;;;12.65;5.57;;;12.70;99.90;;;;;;7345806;32;20507;-66
2022/06/20 05:12:37;;;;;;;12.52;5.32;;;12.70;99.90;;;;;;7343458;32;20111;-66
2022/06/20 05:16:45;;;;;;;11.52;5.55;;;12.80;99.90;;;;;;7341497;32;20111;-66
2022/06/20 05:20:47;;;;;;;14.35;5.43;;;12.80;99.90;;;;;;7339119;32;20107;-67
2022/06/20 05:24:51;;;;;;;14.13;5.50;;;12.70;99.90;;;;;;7339759;32;20520;-67
2022/06/20 05:28:56;;;;;;;10.48;5.30;;;12.70;99.90;;;;;;7340685;32;20116;-65
2022/06/20 05:33:04;;;;;;;12.63;5.65;;;12.80;99.90;;;;;;7348320;32;20668;-67
2022/06/20 05:37:15;;;;;;;10.82;5.32;;;12.80;99.90;;;;;;7343663;32;20203;-66
2022/06/20 05:41:17;;;;;;;12.90;4.80;;;12.90;99.90;;;;;;7339757;32;20111;-67
2022/06/20 05:45:22;;;;;;;14.50;4.03;;;12.80;99.90;;;;;;7339311;32;20197;-67
2022/06/20 05:49:28;;;;;;;11.12;4.30;;;12.80;99.90;;;;;;7329389;32;20145;-65
2022/06/20 05:53:36;;;;;;;15.13;4.45;;;12.80;99.90;;;;;;7339778;32;20201;-66
2022/06/20 05:57:41;;;;;;;9.00;3.55;;;12.70;99.90;;;;;;7341830;32;20111;-68
2022/06/20 06:01:42;;;;;;;13.65;4.10;;;12.70;99.90;;;;;;7345177;32;20169;-67
2022/06/20 06:05:49;;;;;;;13.75;3.58;;;12.80;99.90;;;;;;7336665;32;20130;-65
2022/06/20 06:10:33;;;;;;;14.57;3.90;;;12.70;99.90;;;;;;7341645;32;20198;-67
2022/06/20 06:14:41;;;;;;;10.20;3.20;;;12.70;99.90;;;;;;7340148;32;20166;-65
2022/06/20 06:19:04;;;;;;;12.05;4.45;;;12.80;99.90;;;;;;7342897;32;20238;-63
2022/06/20 06:23:08;;;;;;;13.07;4.62;;;12.80;99.90;;;;;;7338929;32;20106;-64
2022/06/20 06:27:19;;;;;;;13.52;5.18;;;12.60;99.90;;;;;;7334368;32;20207;-62
2022/06/20 06:31:27;;;;;;;13.93;4.30;;;12.50;99.90;;;;;;7330861;32;20111;-62
2022/06/20 06:35:33;;;;;;;;;;;12.50;99.90;;;;;;7345360;32;20476;-61
2022/06/20 06:39:49;;;;;;;12.63;4.57;;;12.40;99.90;;;;;;7345229;32;20068;-62
2022/06/20 06:43:56;;;;;;;15.80;4.47;;;12.40;99.90;;;;;;7345143;32;20636;-62
2022/06/20 06:48:08;;;;;;;17.85;5.07;;;12.50;99.90;;;;;;7344646;32;20275;-62
2022/06/20 06:52:37;;;;;;;17.95;5.43;;;12.60;99.90;;;;;;7342791;32;20115;-62
2022/06/20 06:57:04;;;;;;;13.98;4.72;;;12.60;99.90;;;;;;7338627;32;20234;-63
2022/06/20 07:01:28;;;;;;;15.82;5.05;;;12.70;99.90;;;;;;7333027;32;20224;-62
2022/06/20 07:05:46;;;;;;;13.15;5.50;;;12.80;99.90;;;;;;7337509;32;20145;-62
2022/06/20 07:10:17;;;;;;;15.18;4.35;;;12.80;99.90;;;;;;7340386;32;20122;-63
2022/06/20 07:14:22;;;;;;;15.55;4.82;;;12.80;99.90;;;;;;7335457;32;20209;-63
2022/06/20 07:18:46;;;;;;;13.73;5.50;;;12.90;99.90;;;;;;7336975;32;20186;-63
2022/06/20 07:22:48;;;;;;;15.17;5.70;;;13.00;99.90;;;;;;7341955;32;20423;-63
2022/06/20 07:27:11;;;;;;;17.17;5.80;;;13.00;99.90;;;;;;7340045;32;20150;-63
2022/06/20 07:31:40;;;;;;;12.15;5.45;;;13.10;99.90;;;;;;7340312;32;20361;-63
2022/06/20 07:35:46;;;;;;;15.30;5.90;;;13.30;99.90;;;;;;7339003;32;20213;-63
2022/06/20 07:40:18;;;;;;;15.80;6.95;;;13.40;99.90;;;;;;7339837;32;20530;-63
2022/06/20 07:44:25;;;;;;;17.02;7.15;;;13.60;99.90;;;;;;7333284;32;20108;-63
2022/06/20 07:48:35;;;;;;;15.52;7.00;;;13.80;99.90;;;;;;7341870;32;20142;-63
2022/06/20 07:52:51;;;;;;;13.70;5.93;;;14.30;99.90;;;;;;7339921;32;20524;-63
2022/06/20 07:56:56;;;;;;;14.68;5.78;;;14.70;99.90;;;;;;7341912;32;20225;-63
2022/06/20 08:01:00;;;;;;;9.85;4.53;;;15.10;99.90;;;;;;7340726;32;20138;-65
2022/06/20 08:05:06;;;;;;;13.18;3.60;;;15.30;99.90;;;;;;7331063;32;20523;-63
2022/06/20 08:09:10;;;;;;;8.35;2.85;;;15.70;99.90;;;;;;7338373;32;20253;-63
2022/06/20 08:13:18;;;;;;;13.70;2.72;;;15.50;99.90;;;;;;7335806;32;20226;-64
2022/06/20 08:17:22;;;;;;;6.78;2.17;;;15.50;99.90;;;;;;7331994;32;20549;-62
2022/06/20 08:21:30;;;;;;;8.48;1.95;;;15.60;99.90;;;;;;7339207;32;20594;-63
2022/06/20 08:25:52;;;;;;;7.68;2.30;;;16.00;99.90;;;;;;7337651;32;20202;-63
2022/06/20 08:30:09;;;;;;;4.60;1.70;;;16.90;99.90;;;;;;7340592;32;20422;-63
2022/06/20 08:34:48;;;;;;;6.15;1.70;;;17.30;99.90;;;;;;7336225;32;20388;-63
2022/06/20 08:38:54;;;;;;;;;;;17.50;99.90;;;;;;7334855;32;20190;-63
2022/06/20 08:43:34;;;;;;;9.93;1.95;;;17.80;99.90;;;;;;7331047;32;20096;-63
2022/06/20 08:47:55;;;;;;;11.40;2.12;;;17.70;99.90;;;;;;7329350;32;20112;-62
2022/06/20 08:52:19;;;;;;;6.90;1.80;;;17.50;99.90;;;;;;7335755;32;20523;-62
2022/06/20 08:56:24;;;;;;;6.65;1.20;;;17.20;99.90;;;;;;7334985;32;20234;-64
2022/06/20 09:00:35;;;;;;;5.30;1.80;;;16.80;99.90;;;;;;7337766;32;20119;-63
2022/06/20 09:05:02;;;;;;;7.22;1.50;;;16.60;99.90;;;;;;7335938;32;20681;-63
2022/06/20 09:09:40;;;;;;;5.87;1.55;;;16.60;99.90;;;;;;7339283;32;20115;-66
2022/06/20 09:14:14;;;;;;;12.52;2.95;;;16.40;99.90;;;;;;7293543;32;20626;-62
2022/06/20 09:18:48;;;;;;;7.05;2.87;;;16.40;99.90;;;;;;7315406;32;20214;-61
2022/06/20 09:23:16;;;;;;;9.98;3.03;;;16.60;99.90;;;;;;7336396;32;20578;-61
2022/06/20 09:27:23;;;;;;;;;;;16.30;99.90;;;;;;7336629;32;20367;-62
2022/06/20 09:31:43;;;;;;;6.03;2.10;;;17.10;99.90;;;;;;7344373;32;20017;-61
2022/06/20 09:36:17;;;;;;;6.68;2.42;;;17.90;99.90;;;;;;7339160;32;20305;-62
2022/06/20 09:40:44;;;;;;;6.90;2.67;;;17.60;99.90;;;;;;7337222;32;20107;-62
2022/06/20 09:45:10;;;;;;;7.43;2.15;;;17.30;99.90;;;;;;7342015;32;20231;-62
2022/06/20 09:49:33;;;;;;;9.00;2.40;;;17.10;99.90;;;;;;7342482;32;20238;-62
2022/06/20 09:53:55;;;;;;;7.35;1.90;;;18.10;99.90;;;;;;7333466;32;20217;-62
2022/06/20 09:58:11;;;;;;;4.97;2.00;;;19.50;99.90;;;;;;7338705;32;20126;-63
2022/06/20 10:02:49;;;;;;;6.20;1.80;;;20.70;99.90;;;;;;7342090;32;20115;-62
2022/06/20 10:06:52;;;;;;;7.32;1.85;;;20.30;99.90;;;;;;7310192;32;20183;-63
2022/06/20 10:11:00;;;;;;;5.12;1.70;;;20.90;99.90;;;;;;7340480;32;20243;-63
2022/06/20 10:15:08;;;;;;;5.97;1.95;;;21.30;99.90;;;;;;7338055;32;20143;-63
2022/06/20 10:19:29;;;;;;;6.65;1.67;;;20.90;99.90;;;;;;7339439;32;20121;-64
2022/06/20 10:23:57;;;;;;;9.45;2.05;;;20.50;99.90;;;;;;7343203;32;20112;-64
2022/06/20 10:28:09;;;;;;;7.62;1.60;;;20.20;99.90;;;;;;7338907;32;20111;-64
2022/06/20 10:32:25;;;;;;;7.47;1.90;;;19.70;99.90;;;;;;7339600;32;20186;-59
2022/06/20 10:36:37;;;;;;;7.40;1.75;;;19.20;99.90;;;;;;7340706;32;20454;-63
2022/06/20 10:40:50;;;;;;;5.62;1.45;;;19.10;99.90;;;;;;7336312;32;21579;-62
2022/06/20 10:45:11;;;;;;;5.55;1.40;;;18.90;99.90;;;;;;7342644;32;20137;-63
2022/06/20 10:49:25;;;;;;;2.95;1.00;;;18.80;99.90;;;;;;7338069;32;20107;-63
2022/06/20 10:53:51;;;;;;;7.82;1.70;;;19.10;99.90;;;;;;7339811;32;20688;-62
2022/06/20 10:58:07;;;;;;;5.80;1.70;;;19.40;99.90;;;;;;7328614;32;20926;-64
2022/06/20 11:02:14;;;;;;;5.80;1.40;;;19.60;99.90;;;;;;7332334;32;20190;-63
2022/06/20 11:06:46;;;;;;;6.78;1.25;;;19.80;99.90;;;;;;7336909;32;20132;-64
2022/06/20 11:11:10;;;;;;;5.95;1.40;;;20.30;99.90;;;;;;7334494;32;20119;-63
2022/06/20 11:16:02;;;;;;;3.40;1.35;;;20.20;99.90;;;;;;7339120;32;20193;-63
2022/06/20 11:20:13;;;;;;;6.07;1.60;;;19.70;99.90;;;;;;7326844;32;20365;-64
2022/06/20 11:24:24;;;;;;;3.45;1.30;;;20.30;99.90;;;;;;7334580;32;20370;-63
2022/06/20 11:28:36;;;;;;;7.35;2.12;;;21.00;99.90;;;;;;7336629;32;20201;-64
2022/06/20 11:32:51;;;;;;;5.97;1.90;;;21.00;99.90;;;;;;7337006;32;20129;-64
2022/06/20 11:37:19;;;;;;;5.80;1.92;;;21.20;99.90;;;;;;7341096;32;20274;-63
2022/06/20 11:41:30;;;;;;;;;;;21.10;99.90;;;;;;7335349;32;20413;-64
2022/06/20 11:46:06;;;;;;;4.20;1.92;;;21.00;99.90;;;;;;7334505;32;20157;-63
2022/06/20 11:50:33;;;;;;;6.20;1.98;;;20.60;99.90;;;;;;7333891;32;20203;-63
2022/06/20 11:54:55;;;;;;;8.70;2.17;;;20.30;99.90;;;;;;7334414;32;20220;-64
2022/06/20 11:59:29;;;;;;;9.70;1.67;;;20.60;99.90;;;;;;7333334;32;20367;-62
2022/06/20 12:04:02;;;;;;;5.15;1.50;;;20.40;99.90;;;;;;7333296;32;20159;-59
2022/06/20 12:08:10;;;;;;;6.57;1.45;;;20.20;99.90;;;;;;7335412;32;20191;-60
2022/06/20 12:12:27;;;;;;;10.30;1.90;;;20.00;99.90;;;;;;7339248;32;20160;-60
2022/06/20 12:16:48;;;;;;;5.90;1.50;;;20.10;99.90;;;;;;7330575;32;20111;-60
2022/06/20 12:25:32;;;;;;;3.78;1.40;;;20.00;99.90;;;;;;7332164;32;21704;-63
2022/06/20 12:29:36;;;;;;;5.35;1.70;;;20.00;99.90;;;;;;7336853;32;20108;-63
2022/06/20 12:33:45;;;;;;;5.60;1.35;;;20.10;99.90;;;;;;7333976;32;20150;-64
2022/06/20 12:38:12;;;;;;;5.82;1.90;;;20.30;99.90;;;;;;7334284;32;20238;-64
2022/06/20 12:42:49;;;;;;;9.65;1.80;;;20.60;99.90;;;;;;7338088;32;20115;-62
2022/06/20 12:47:01;;;;;;;5.28;1.60;;;20.60;99.90;;;;;;7338536;32;20100;-64
2022/06/20 12:51:18;;;;;;;6.82;1.83;;;20.70;99.90;;;;;;7337492;32;20194;-64
2022/06/20 12:55:25;;;;;;;8.55;2.00;;;20.80;99.90;;;;;;7337623;32;20791;-63
2022/06/20 13:00:19;;;;;;;4.50;1.75;;;20.90;99.90;;;;;;7338187;32;20300;-63
2022/06/20 13:04:33;;;;;;;5.45;2.03;;;20.70;99.90;;;;;;7339101;32;20110;-64
2022/06/20 13:08:37;;;;;;;7.70;2.30;;;20.30;99.90;;;;;;7336668;32;20230;-63
2022/06/20 13:12:39;;;;;;;4.68;1.80;;;20.30;99.90;;;;;;7342914;32;20100;-64
2022/06/20 13:16:55;;;;;;;4.53;1.83;;;20.30;99.90;;;;;;7335147;32;20506;-64
2022/06/20 13:21:08;;;;;;;6.12;1.67;;;20.10;99.90;;;;;;7342822;32;20468;-64
2022/06/20 13:25:10;;;;;;;4.65;1.80;;;20.30;99.90;;;;;;7340230;32;20123;-63
2022/06/20 13:29:49;;;;;;;6.72;1.95;;;20.30;99.90;;;;;;7340521;32;20149;-63
2022/06/20 13:34:22;;;;;;;4.72;1.77;;;20.10;99.90;;;;;;7339436;32;20099;-64
2022/06/20 13:38:39;;;;;;;5.87;1.67;;;19.80;99.90;;;;;;7335015;32;20275;-64
2022/06/20 13:43:04;;;;;;;4.97;1.58;;;19.70;99.90;;;;;;7337683;32;20111;-64
2022/06/20 13:47:21;;;;;;;7.97;2.05;;;20.20;99.90;;;;;;7334394;32;20210;-63
2022/06/20 13:51:36;;;;;;;5.97;2.00;;;20.40;99.90;;;;;;7341671;32;20279;-63
2022/06/20 13:56:04;;;;;;;5.87;1.92;;;20.40;99.90;;;;;;7339281;32;20124;-63
2022/06/20 14:00:20;;;;;;;5.32;1.83;;;20.30;99.90;;;;;;7337701;32;20279;-64
2022/06/20 14:04:42;;;;;;;5.47;2.08;;;20.80;99.90;;;;;;7340615;32;20099;-63
2022/06/20 14:09:03;;;;;;;7.32;2.42;;;21.20;99.90;;;;;;7341204;32;20293;-64
2022/06/20 14:13:16;;;;;;;8.60;2.42;;;20.80;99.90;;;;;;7337968;32;20099;-64
2022/06/20 14:17:27;;;;;;;6.65;2.05;;;20.60;99.90;;;;;;7334496;32;20100;-64
2022/06/20 14:21:38;;;;;;;8.13;1.70;;;20.80;99.90;;;;;;7335583;32;20126;-64
2022/06/20 14:25:47;;;;;;;7.05;1.70;;;20.90;99.90;;;;;;7339470;32;20548;-64
2022/06/20 14:30:15;;;;;;;8.30;1.80;;;20.70;99.20;;;;;;7339610;32;20199;-64
2022/06/20 14:34:37;;;;;;;7.72;2.00;;;20.20;99.90;;;;;;7333607;32;20099;-63
2022/06/20 14:38:49;;;;;;;6.43;1.87;;;20.00;99.90;;;;;;7336963;32;20099;-64
2022/06/20 14:43:17;;;;;;;6.55;1.62;;;19.80;99.90;;;;;;7335702;32;20132;-64
2022/06/20 14:47:25;;;;;;;4.78;1.48;;;19.60;99.90;;;;;;7332003;32;20399;-64
2022/06/20 14:51:44;;;;;;;6.28;1.55;;;19.50;99.90;;;;;;7339973;32;20249;-64
2022/06/20 14:55:56;;;;;;;5.28;1.60;;;19.80;99.90;;;;;;7338278;32;20245;-62
2022/06/20 15:00:20;;;;;;;4.10;1.60;;;19.90;99.90;;;;;;7338732;32;20118;-62
2022/06/20 15:04:31;;;;;;;5.22;1.55;;;19.70;99.90;;;;;;7336060;32;20125;-64
2022/06/20 15:08:57;;;;;;;5.15;1.55;;;19.80;99.90;;;;;;7336781;32;20217;-63
2022/06/20 15:13:18;;;;;;;8.25;2.05;;;20.20;99.90;;;;;;7337494;32;20314;-63
2022/06/20 15:17:43;;;;;;;5.03;1.45;;;21.20;99.90;;;;;;7338321;32;20224;-62
2022/06/20 15:21:49;;;;;;;5.50;1.33;;;21.70;96.60;;;;;;7334642;32;20583;-64
2022/06/20 15:25:56;;;;;;;3.95;1.05;;;21.70;94.50;;;;;;7334455;32;20459;-64
2022/06/20 15:30:05;;;;;;;4.20;1.27;;;21.60;94.30;;;;;;7341730;32;20102;-62
2022/06/20 15:34:37;;;;;;;5.78;1.40;;;21.50;94.60;;;;;;7337605;32;20125;-63
2022/06/20 15:38:52;;;;;;;6.57;1.58;;;21.30;94.90;;;;;;7324763;32;20150;-64
2022/06/20 15:43:02;;;;;;;5.45;1.45;;;21.10;92.90;;;;;;7333415;32;20612;-62
2022/06/20 15:47:31;;;;;;;6.68;1.23;;;21.00;94.50;;;;;;7332442;32;20107;-62
2022/06/20 15:51:54;;;;;;;7.45;1.12;;;21.20;93.80;;;;;;7337807;32;20179;-63
2022/06/20 15:55:56;;;;;;;4.90;1.50;;;21.10;95.00;;;;;;7339355;32;20095;-63
2022/06/20 16:00:11;;;;;;;4.68;1.33;;;21.20;94.20;;;;;;7334752;32;20451;-62
2022/06/20 16:04:37;;;;;;;4.28;1.20;;;21.30;92.90;;;;;;7325489;32;20270;-63
2022/06/20 16:08:54;;;;;;;5.43;1.30;;;21.20;92.80;;;;;;7323980;32;22361;-64
2022/06/20 16:12:59;;;;;;;6.80;1.65;;;21.20;94.90;;;;;;7307836;32;20905;-64
2022/06/20 16:17:01;;;;;;;7.00;3.67;;;21.00;94.00;;;;;;7333280;32;20182;-63
2022/06/20 16:21:23;;;;;;;7.18;1.35;;;21.00;94.00;;;;;;7336927;32;20193;-64
2022/06/20 16:25:32;;;;;;;6.00;1.40;;;21.00;93.90;;;;;;7339789;32;20522;-63
2022/06/20 16:29:46;;;;;;;3.80;1.20;;;20.80;94.50;;;;;;7338121;32;20504;-64
2022/06/20 16:33:51;;;;;;;4.22;1.20;;;20.80;95.20;;;;;;7328034;32;20260;-63
2022/06/20 16:37:59;;;;;;;4.18;1.25;;;20.80;94.20;;;;;;7333176;32;20187;-63
2022/06/20 16:42:10;;;;;;;4.00;1.45;;;20.60;94.10;;;;;;7338668;32;20217;-64
2022/06/20 16:46:21;;;;;;;3.83;1.17;;;20.50;95.20;;;;;;7340180;32;20288;-63
2022/06/20 16:50:32;;;;;;;9.43;4.72;;;20.40;96.10;;;;;;7331249;32;20210;-63
2022/06/20 16:54:44;;;;;;;5.37;1.67;;;20.30;94.80;;;;;;7331322;32;20317;-63
2022/06/20 16:58:53;;;;;;;4.30;1.30;;;20.20;95.70;;;;;;7334262;32;20179;-63
2022/06/20 17:02:57;;;;;;;4.55;1.05;;;20.30;96.00;;;;;;7336367;32;20328;-64
2022/06/20 17:07:14;;;;;;;7.40;1.40;;;20.20;94.80;;;;;;7332740;32;20517;-64
2022/06/20 17:11:46;;;;;;;5.90;1.35;;;20.00;95.20;;;;;;7336126;32;20092;-64
2022/06/20 17:16:05;;;;;;;6.78;1.40;;;19.90;94.80;;;;;;7325117;32;20131;-64
2022/06/20 17:20:18;;;;;;;3.97;1.30;;;19.90;96.10;;;;;;7337825;32;20230;-68
2022/06/20 17:24:49;;;;;;;7.45;1.37;;;19.80;96.30;;;;;;7339261;32;20111;-69
2022/06/20 17:29:06;;;;;;;3.72;1.30;;;19.60;96.70;;;;;;7336911;32;20186;-67
2022/06/20 17:33:36;;;;;;;4.22;1.25;;;19.60;97.30;;;;;;7342952;32;20576;-67
2022/06/20 17:38:05;;;;;;;4.10;1.27;;;19.50;97.40;;;;;;7339828;32;20459;-66
2022/06/20 17:42:19;;;;;;;7.18;1.17;;;19.40;96.60;;;;;;7334946;32;20225;-65
2022/06/20 17:46:28;;;;;;;22.90;15.43;;;19.40;99.70;;;;;;7331996;32;20290;-63
2022/06/20 17:50:36;;;;;;;4.22;1.30;;;19.40;96.60;;;;;;7334677;32;20292;-63
2022/06/20 17:55:01;;;;;;;9.57;1.60;;;19.30;97.20;;;;;;7329214;32;20197;-63
2022/06/20 17:59:24;;;;;;;6.72;1.48;;;19.10;97.60;;;;;;7332498;32;20260;-62
2022/06/20 18:03:43;;;;;;;9.93;1.87;;;19.10;97.90;;;;;;7332347;32;20309;-65
2022/06/20 18:08:10;;;;;;;7.25;1.62;;;19.10;98.30;;;;;;7331103;32;20202;-65
2022/06/20 18:12:30;;;;;;;5.40;1.60;;;18.90;99.50;;;;;;7339622;32;20201;-64
2022/06/20 18:16:42;;;;;;;6.28;1.77;;;19.00;99.30;;;;;;7332824;32;22931;-65
2022/06/20 18:20:50;;;;;;;4.30;1.67;;;18.90;99.00;;;;;;7332450;32;20205;-66
2022/06/20 18:24:54;;;;;;;;;;;18.80;99.80;;;;;;7337987;32;20213;-67
2022/06/20 18:28:59;;;;;;;7.18;1.67;;;18.80;99.90;;;;;;7337546;32;20292;-65
2022/06/20 18:33:03;;;;;;;6.28;1.27;;;18.60;99.90;;;;;;7338048;32;20190;-68
2022/06/20 18:37:28;;;;;;;6.28;1.70;;;18.50;99.90;;;;;;7337851;32;20134;-69
2022/06/20 18:41:30;;;;;;;7.28;1.80;;;18.40;99.90;;;;;;7338902;32;20125;-68
2022/06/20 18:45:38;;;;;;;7.75;2.00;;;18.30;99.90;;;;;;7342065;32;20111;-68
2022/06/20 18:49:40;;;;;;;7.00;1.75;;;18.10;99.90;;;;;;7339478;32;20114;-68
2022/06/20 18:53:53;;;;;;;7.47;2.03;;;18.00;99.90;;;;;;7339433;32;20134;-68
2022/06/20 18:58:01;;;;;;;6.57;1.60;;;17.80;99.90;;;;;;7342145;32;20103;-67
2022/06/20 19:02:22;;;;;;;5.95;1.70;;;17.70;99.90;;;;;;7336333;32;20961;-66
2022/06/20 19:06:38;;;;;;;5.95;1.73;;;17.40;99.90;;;;;;7335371;32;20605;-68
2022/06/20 19:10:49;;;;;;;5.60;1.70;;;17.40;99.90;;;;;;7335713;32;20178;-67
2022/06/20 19:15:12;;;;;;;3.67;1.10;;;17.30;99.90;;;;;;7331052;32;20179;-66
2022/06/20 19:19:29;;;;;;;4.78;1.70;;;17.10;99.90;;;;;;7335808;32;20230;-66
2022/06/20 19:23:56;;;;;;;2.53;1.35;;;16.90;99.90;;;;;;7328812;32;20182;-66
2022/06/20 19:28:06;;;;;;;7.72;1.52;;;16.90;99.90;;;;;;7325098;32;21572;-68
2022/06/20 19:32:16;;;;;;;4.00;1.80;;;16.80;99.90;;;;;;7339593;32;20564;-67
2022/06/20 19:36:25;;;;;;;2.90;1.15;;;16.70;99.90;;;;;;7335477;32;20126;-67
2022/06/20 19:40:34;;;;;;;3.83;1.08;;;16.50;99.90;;;;;;7328792;32;20200;-66
2022/06/20 19:44:38;;;;;;;4.95;1.48;;;16.40;99.90;;;;;;7332703;32;20617;-66
2022/06/20 19:48:44;;;;;;;3.65;1.30;;;16.20;99.90;;;;;;7338664;32;20189;-69
2022/06/20 19:53:01;;;;;;;3.60;1.42;;;16.10;99.90;;;;;;7337507;32;20733;-68
2022/06/20 19:57:11;;;;;;;5.07;1.77;;;16.00;99.90;;;;;;7341362;32;20286;-67
2022/06/20 20:01:28;;;;;;;5.87;1.50;;;15.80;99.90;;;;;;7336423;32;20190;-67
2022/06/20 20:05:29;;;;;;;8.20;1.70;;;15.60;99.90;;;;;;7339073;32;20285;-64
2022/06/20 20:09:31;;;;;;;4.50;2.00;;;15.50;99.90;;;;;;7333150;32;20190;-62
2022/06/20 20:13:35;;;;;;;4.37;2.22;;;15.20;99.90;;;;;;7328879;32;20923;-63
2022/06/20 20:18:15;;;;;;;6.43;2.15;;;15.00;99.90;;;;;;7332630;32;20183;-63
2022/06/20 20:22:25;;;;;;;5.95;2.28;;;14.80;99.90;;;;;;7338285;32;20182;-63
2022/06/20 20:26:27;;;;;;;5.80;2.22;;;14.60;99.90;;;;;;7340039;32;20870;-63
2022/06/20 20:30:36;;;;;;;5.20;2.30;;;14.30;99.90;;;;;;7332773;32;20288;-61
2022/06/20 20:34:48;;;;;;;4.25;2.15;;;14.20;99.90;;;;;;7337882;32;20126;-63
2022/06/20 20:38:57;;;;;;;7.40;2.58;;;14.10;99.90;;;;;;7340183;32;20202;-64
2022/06/20 20:43:29;;;;;;;7.75;2.60;;;13.80;99.90;;;;;;7336779;32;20421;-64
2022/06/20 20:47:36;;;;;;;21.42;15.18;;;13.70;99.90;;;;;;7340632;32;20095;-63
2022/06/20 20:51:38;;;;;;;7.37;2.58;;;13.50;99.90;;;;;;7336291;32;21446;-64
2022/06/20 20:55:43;;;;;;;5.93;2.60;;;13.30;99.90;;;;;;7342542;32;20466;-64
2022/06/20 20:59:51;;;;;;;7.65;2.20;;;13.20;99.90;;;;;;7338394;32;20103;-63
2022/06/20 21:03:55;;;;;;;7.15;2.60;;;13.10;99.90;;;;;;7342299;32;20222;-62
2022/06/20 21:08:08;;;;;;;5.55;2.62;;;12.90;99.90;;;;;;7336939;32;20178;-63
2022/06/20 21:12:16;;;;;;;6.22;2.60;;;12.80;99.90;;;;;;7340486;32;20486;-63
2022/06/20 21:16:26;;;;;;;8.25;2.83;;;12.80;99.90;;;;;;7341782;32;20596;-65
2022/06/20 21:20:51;;;;;;;5.78;2.30;;;12.60;99.90;;;;;;7335429;32;20183;-62
2022/06/20 21:24:56;;;;;;;7.40;2.75;;;12.50;99.90;;;;;;7340414;32;20100;-61
2022/06/20 21:29:04;;;;;;;6.25;2.78;;;12.30;99.90;;;;;;7339746;32;20099;-60
2022/06/20 21:33:12;;;;;;;5.70;2.42;;;12.30;99.90;;;;;;7341499;32;20819;-60
2022/06/20 21:37:21;;;;;;;4.40;3.10;;;12.20;99.90;;;;;;7335600;32;20192;-60
2022/06/20 21:41:23;;;;;;;14.15;3.40;;;12.00;99.90;;;;;;7337311;32;20522;-60
2022/06/20 21:45:40;;;;;;;6.03;2.85;;;12.00;99.90;;;;;;7343665;32;20518;-60
2022/06/20 21:49:42;;;;;;;3.90;2.90;;;11.90;99.90;;;;;;7340722;32;20200;-60
2022/06/20 21:53:47;;;;;;;5.15;3.10;;;11.80;99.90;;;;;;7341685;32;20213;-60
2022/06/20 21:58:01;;;;;;;6.37;3.10;;;11.70;99.90;;;;;;7343200;32;20220;-61
2022/06/20 22:06:26;;;;;;;9.52;3.37;;;11.50;99.90;;;;;;7344694;32;20142;-60
2022/06/20 22:10:33;;;;;;;7.03;2.67;;;11.40;99.90;;;;;;7335640;32;20168;-60
2022/06/20 22:14:46;;;;;;;10.18;2.92;;;11.30;99.90;;;;;;7345028;32;20631;-60
2022/06/20 22:19:06;;;;;;;8.00;2.87;;;11.20;99.90;;;;;;7343063;32;20602;-60